createdAt,value
2018-03-18T00:00:12.416Z,119.77
2018-03-18T00:02:42.125Z,124.97
2018-03-18T00:05:11.267Z,118.00
2018-03-18T00:07:40.453Z,127.90
2018-03-18T00:10:10.006Z,128.67
2018-03-18T00:12:39.139Z,126.60
2018-03-18T00:15:08.365Z,128.07
2018-03-18T00:17:37.510Z,132.20
2018-03-18T00:20:06.674Z,259.33
2018-03-18T00:22:35.872Z,138.93
2018-03-18T00:25:05.019Z,138.83
2018-03-18T00:27:34.178Z,150.73
2018-03-18T00:30:03.381Z,142.53
2018-03-18T00:32:32.545Z,138.93
2018-03-18T00:35:01.682Z,145.30
2018-03-18T00:37:30.866Z,143.13
2018-03-18T00:40:00.012Z,172.63
2018-03-18T00:42:29.179Z,144.17
2018-03-18T00:44:58.319Z,179.57
2018-03-18T00:47:27.474Z,146.23
2018-03-18T00:49:56.650Z,160.10
2018-03-18T00:52:25.833Z,136.87
2018-03-18T00:54:54.978Z,127.13
2018-03-18T00:57:24.125Z,147.40
2018-03-18T00:59:53.320Z,157.67
2018-03-18T01:02:22.544Z,144.93
2018-03-18T01:04:51.685Z,183.90
2018-03-18T01:07:20.822Z,148.23
2018-03-18T01:09:49.987Z,139.07
2018-03-18T01:12:19.658Z,149.97
2018-03-18T01:14:48.813Z,143.73
2018-03-18T01:17:18.119Z,145.67
2018-03-18T01:19:47.262Z,145.20
2018-03-18T01:22:16.403Z,142.67
2018-03-18T01:24:45.614Z,137.93
2018-03-18T01:27:14.769Z,136.30
2018-03-18T01:29:43.910Z,141.37
2018-03-18T01:32:13.086Z,140.13
2018-03-18T01:34:42.222Z,134.60
2018-03-18T01:37:11.363Z,131.67
2018-03-18T01:39:40.534Z,136.87
2018-03-18T01:42:09.677Z,128.40
2018-03-18T01:44:38.844Z,142.60
2018-03-18T01:47:08.369Z,139.43
2018-03-18T01:49:37.513Z,133.43
2018-03-18T01:52:06.675Z,137.47
2018-03-18T01:54:35.880Z,123.50
2018-03-18T01:57:05.057Z,139.10
2018-03-18T01:59:34.253Z,134.40
2018-03-18T02:02:03.389Z,174.83
2018-03-18T02:04:32.557Z,158.67
2018-03-18T02:07:01.692Z,137.47
2018-03-18T02:09:30.834Z,141.97
2018-03-18T02:12:00.020Z,142.40
2018-03-18T02:14:29.157Z,146.47
2018-03-18T02:16:58.302Z,147.07
2018-03-18T02:19:27.494Z,140.87
2018-03-18T02:21:56.646Z,135.27
2018-03-18T02:24:25.800Z,130.83
2018-03-18T02:26:54.982Z,132.33
2018-03-18T02:29:24.166Z,141.17
2018-03-18T02:31:53.323Z,160.80
2018-03-18T02:34:22.482Z,126.50
2018-03-18T02:36:51.666Z,127.50
2018-03-18T02:39:20.805Z,147.00
2018-03-18T02:41:49.989Z,146.83
2018-03-18T02:44:19.128Z,171.37
2018-03-18T02:46:48.271Z,132.80
2018-03-18T02:49:17.527Z,140.97
2018-03-18T02:51:46.618Z,132.20
2018-03-18T02:54:15.785Z,132.13
2018-03-18T02:56:44.967Z,142.30
2018-03-18T02:59:14.118Z,129.60
2018-03-18T03:01:43.311Z,194.37
2018-03-18T03:04:12.463Z,127.60
2018-03-18T03:06:41.608Z,146.13
2018-03-18T03:09:10.780Z,179.97
2018-03-18T03:11:39.931Z,130.97
2018-03-18T03:14:09.091Z,133.40
2018-03-18T03:16:38.265Z,121.63
2018-03-18T03:19:07.422Z,115.77
2018-03-18T03:21:36.566Z,119.30
2018-03-18T03:24:05.750Z,118.80
2018-03-18T03:26:34.901Z,121.10
2018-03-18T03:29:04.042Z,118.57
2018-03-18T03:31:33.220Z,114.97
2018-03-18T03:34:02.357Z,148.77
2018-03-18T03:36:31.509Z,130.77
2018-03-18T03:39:00.686Z,124.80
2018-03-18T03:41:29.824Z,119.70
2018-03-18T03:43:58.971Z,117.90
2018-03-18T03:46:28.132Z,117.77
2018-03-18T03:48:57.279Z,115.27
2018-03-18T03:51:26.417Z,113.70
2018-03-18T03:53:55.605Z,115.90
2018-03-18T03:56:24.745Z,106.73
2018-03-18T03:58:53.909Z,110.43
2018-03-18T04:01:23.107Z,110.07
2018-03-18T04:03:52.242Z,110.53
2018-03-18T04:06:21.440Z,107.20
2018-03-18T04:08:50.590Z,106.57
2018-03-18T04:11:19.790Z,111.50
2018-03-18T04:13:48.966Z,109.90
2018-03-18T04:16:18.117Z,115.90
2018-03-18T04:18:47.250Z,111.37
2018-03-18T04:21:16.416Z,111.43
2018-03-18T04:23:45.561Z,112.57
2018-03-18T04:26:14.714Z,109.00
2018-03-18T04:28:43.898Z,107.63
2018-03-18T04:31:13.033Z,111.10
2018-03-18T04:33:42.210Z,106.67
2018-03-18T04:36:11.351Z,109.50
2018-03-18T04:38:40.491Z,109.67
2018-03-18T04:41:09.653Z,109.30
2018-03-18T04:43:38.797Z,114.17
2018-03-18T04:46:07.954Z,112.13
2018-03-18T04:48:37.129Z,107.20
2018-03-18T04:51:06.280Z,105.37
2018-03-18T04:53:35.648Z,114.20
2018-03-18T04:56:04.798Z,104.37
2018-03-18T04:58:34.049Z,107.17
2018-03-18T05:01:03.185Z,111.90
2018-03-18T05:03:32.365Z,107.77
2018-03-18T05:06:01.507Z,106.50
2018-03-18T05:08:30.701Z,111.30
2018-03-18T05:10:59.846Z,104.50
2018-03-18T05:13:28.997Z,105.97
2018-03-18T05:15:58.175Z,100.87
2018-03-18T05:18:27.351Z,100.37
2018-03-18T05:20:56.494Z,100.10
2018-03-18T05:23:25.638Z,109.90
2018-03-18T05:25:54.812Z,105.47
2018-03-18T05:28:23.983Z,106.17
2018-03-18T05:30:53.128Z,106.17
2018-03-18T05:33:22.270Z,101.63
2018-03-18T05:35:51.426Z,103.50
2018-03-18T05:38:20.566Z,107.07
2018-03-18T05:40:49.701Z,103.07
2018-03-18T05:43:18.915Z,105.23
2018-03-18T05:45:48.078Z,109.93
2018-03-18T05:48:17.258Z,104.30
2018-03-18T05:50:46.437Z,100.87
2018-03-18T05:53:15.569Z,104.47
2018-03-18T05:55:44.741Z,103.67
2018-03-18T05:58:13.881Z,104.30
2018-03-18T06:00:43.032Z,105.90
2018-03-18T06:03:12.189Z,96.87
2018-03-18T06:05:41.335Z,98.37
2018-03-18T06:08:10.549Z,102.37
2018-03-18T06:10:39.692Z,108.60
2018-03-18T06:13:08.826Z,98.40
2018-03-18T06:15:38.000Z,103.53
2018-03-18T06:18:07.141Z,102.47
2018-03-18T06:20:36.288Z,102.83
2018-03-18T06:23:05.465Z,108.40
2018-03-18T06:25:34.662Z,100.07
2018-03-18T06:28:03.851Z,107.23
2018-03-18T06:30:33.030Z,108.67
2018-03-18T06:33:02.205Z,102.47
2018-03-18T06:35:31.348Z,98.43
2018-03-18T06:38:00.498Z,104.23
2018-03-18T06:40:29.681Z,97.07
2018-03-18T06:42:58.838Z,94.93
2018-03-18T06:45:27.983Z,93.20
2018-03-18T06:47:57.150Z,95.07
2018-03-18T06:50:26.308Z,100.90
2018-03-18T06:52:55.445Z,106.17
2018-03-18T06:55:24.607Z,107.10
2018-03-18T06:57:53.757Z,101.97
2018-03-18T07:00:22.917Z,102.17
2018-03-18T07:02:52.099Z,104.67
2018-03-18T07:05:21.265Z,100.17
2018-03-18T07:07:50.863Z,101.83
2018-03-18T07:10:19.999Z,94.37
2018-03-18T07:12:49.153Z,109.27
2018-03-18T07:15:18.338Z,100.53
2018-03-18T07:17:47.480Z,97.87
2018-03-18T07:20:16.618Z,97.63
2018-03-18T07:22:46.254Z,94.03
2018-03-18T07:25:15.393Z,113.87
2018-03-18T07:27:44.517Z,94.63
2018-03-18T07:30:13.700Z,103.20
2018-03-18T07:32:42.837Z,101.57
2018-03-18T07:35:11.979Z,101.27
2018-03-18T07:37:41.149Z,101.60
2018-03-18T07:40:10.303Z,103.83
2018-03-18T07:42:39.447Z,97.53
2018-03-18T07:45:08.618Z,104.63
2018-03-18T07:47:37.754Z,99.90
2018-03-18T07:50:06.890Z,99.37
2018-03-18T07:52:36.069Z,106.10
2018-03-18T07:55:05.222Z,98.47
2018-03-18T07:57:34.373Z,98.63
2018-03-18T08:00:03.639Z,100.23
2018-03-18T08:02:32.770Z,101.37
2018-03-18T08:05:01.917Z,101.93
2018-03-18T08:07:31.135Z,96.83
2018-03-18T08:10:00.264Z,103.27
2018-03-18T08:12:29.420Z,102.17
2018-03-18T08:14:58.602Z,105.83
2018-03-18T08:17:27.744Z,106.53
2018-03-18T08:19:56.917Z,103.13
2018-03-18T08:22:26.045Z,104.43
2018-03-18T08:24:55.244Z,99.73
2018-03-18T08:27:24.385Z,98.57
2018-03-18T08:29:53.524Z,101.00
2018-03-18T08:32:22.697Z,100.57
2018-03-18T08:34:52.064Z,104.00
2018-03-18T08:37:21.205Z,100.07
2018-03-18T08:39:50.373Z,102.80
2018-03-18T08:42:25.489Z,103.90
2018-03-18T08:44:54.653Z,101.77
2018-03-18T08:47:23.821Z,100.77
2018-03-18T08:49:52.956Z,103.70
2018-03-18T08:52:22.173Z,103.63
2018-03-18T08:54:51.304Z,98.13
2018-03-18T08:57:20.445Z,101.87
2018-03-18T08:59:49.593Z,104.67
2018-03-18T09:02:18.751Z,103.90
2018-03-18T09:04:47.923Z,103.97
2018-03-18T09:07:17.098Z,102.10
2018-03-18T09:09:46.246Z,101.40
2018-03-18T09:12:15.378Z,97.87
2018-03-18T09:14:44.538Z,96.20
2018-03-18T09:17:13.678Z,94.53
2018-03-18T09:19:42.816Z,100.73
2018-03-18T09:22:11.996Z,99.47
2018-03-18T09:24:41.136Z,101.03
2018-03-18T09:27:10.338Z,96.70
2018-03-18T09:29:39.472Z,96.57
2018-03-18T09:32:08.602Z,92.77
2018-03-18T09:34:37.799Z,92.00
2018-03-18T09:37:06.975Z,95.30
2018-03-18T09:39:36.146Z,96.07
2018-03-18T09:42:05.282Z,94.40
2018-03-18T09:44:34.451Z,88.90
2018-03-18T09:47:03.658Z,95.47
2018-03-18T09:49:32.873Z,92.10
2018-03-18T09:52:01.987Z,93.77
2018-03-18T09:54:31.247Z,90.90
2018-03-18T09:57:00.497Z,94.60
2018-03-18T09:59:29.654Z,89.80
2018-03-18T10:01:59.014Z,87.10
2018-03-18T10:04:28.489Z,89.00
2018-03-18T10:06:57.651Z,91.63
2018-03-18T10:09:26.864Z,95.80
2018-03-18T10:11:56.074Z,91.57
2018-03-18T10:14:25.233Z,90.53
2018-03-18T10:16:54.393Z,89.83
2018-03-18T10:19:23.540Z,89.53
2018-03-18T10:21:52.700Z,87.90
2018-03-18T10:24:21.838Z,83.00
2018-03-18T10:26:50.978Z,88.80
2018-03-18T10:29:20.155Z,87.63
2018-03-18T10:31:49.289Z,87.37
2018-03-18T10:34:18.425Z,92.40
2018-03-18T10:36:47.595Z,88.80
2018-03-18T10:39:16.747Z,87.83
2018-03-18T10:41:45.978Z,90.17
2018-03-18T10:44:15.138Z,89.33
2018-03-18T10:46:44.286Z,85.90
2018-03-18T10:49:13.472Z,89.10
2018-03-18T10:51:42.622Z,84.87
2018-03-18T10:54:11.806Z,84.93
2018-03-18T10:56:40.949Z,89.17
2018-03-18T10:59:10.666Z,88.20
2018-03-18T11:01:45.477Z,87.63
2018-03-18T11:04:17.597Z,91.00
2018-03-18T11:06:46.776Z,90.27
2018-03-18T11:09:15.916Z,94.97
2018-03-18T11:11:45.081Z,86.87
2018-03-18T11:14:14.249Z,88.87
2018-03-18T11:16:43.390Z,94.57
2018-03-18T11:19:12.548Z,89.77
2018-03-18T11:21:41.698Z,91.50
2018-03-18T11:24:10.838Z,94.37
2018-03-18T11:26:40.018Z,88.70
2018-03-18T11:29:09.163Z,86.47
2018-03-18T11:31:38.298Z,88.67
2018-03-18T11:34:07.461Z,88.90
2018-03-18T11:36:36.618Z,89.43
2018-03-18T11:39:05.770Z,91.03
2018-03-18T11:41:34.945Z,89.17
2018-03-18T11:44:04.087Z,91.13
2018-03-18T11:46:33.227Z,93.53
2018-03-18T11:49:02.400Z,92.77
2018-03-18T11:51:31.553Z,91.13
2018-03-18T11:54:01.271Z,93.10
2018-03-18T11:56:30.465Z,95.73
2018-03-18T11:58:59.616Z,89.53
2018-03-18T12:01:28.894Z,89.63
2018-03-18T12:03:58.035Z,88.30
2018-03-18T12:06:27.187Z,95.40
2018-03-18T12:08:58.106Z,88.83
2018-03-18T12:11:27.256Z,95.70
2018-03-18T12:13:56.393Z,92.37
2018-03-18T12:16:25.567Z,89.03
2018-03-18T12:18:54.714Z,96.37
2018-03-18T12:21:23.860Z,88.20
2018-03-18T12:23:53.039Z,93.73
2018-03-18T12:26:22.186Z,87.97
2018-03-18T12:28:51.326Z,89.47
2018-03-18T12:31:20.494Z,88.20
2018-03-18T12:33:49.647Z,94.13
2018-03-18T12:36:18.792Z,89.70
2018-03-18T12:38:47.934Z,87.47
2018-03-18T12:41:17.080Z,88.47
2018-03-18T12:43:46.242Z,94.50
2018-03-18T12:46:15.377Z,99.60
2018-03-18T12:48:44.510Z,93.07
2018-03-18T12:51:13.756Z,89.23
2018-03-18T12:53:42.892Z,91.70
2018-03-18T12:56:12.018Z,92.87
2018-03-18T12:58:41.202Z,95.37
2018-03-18T13:01:10.338Z,88.47
2018-03-18T13:03:39.481Z,92.03
2018-03-18T13:06:08.653Z,91.00
2018-03-18T13:08:37.802Z,88.90
2018-03-18T13:11:06.941Z,92.07
2018-03-18T13:13:36.122Z,91.57
2018-03-18T13:16:05.258Z,86.77
2018-03-18T13:18:34.409Z,91.50
2018-03-18T13:21:03.604Z,89.33
2018-03-18T13:23:32.780Z,98.40
2018-03-18T13:26:01.961Z,88.70
2018-03-18T13:28:31.120Z,92.07
2018-03-18T13:31:00.323Z,87.63
2018-03-18T13:33:29.457Z,85.13
2018-03-18T13:35:58.585Z,91.93
2018-03-18T13:38:27.744Z,95.13
2018-03-18T13:40:56.892Z,93.00
2018-03-18T13:43:32.733Z,91.10
2018-03-18T13:46:01.882Z,89.93
2018-03-18T13:48:31.079Z,90.03
2018-03-18T13:51:00.212Z,95.53
2018-03-18T13:53:29.403Z,90.47
2018-03-18T13:55:58.605Z,92.77
2018-03-18T13:58:27.743Z,90.10
2018-03-18T14:00:56.878Z,93.37
2018-03-18T14:03:26.014Z,92.40
2018-03-18T14:05:55.332Z,94.40
2018-03-18T14:08:24.603Z,94.80
2018-03-18T14:10:53.746Z,96.23
2018-03-18T14:13:22.925Z,91.37
2018-03-18T14:15:52.077Z,96.53
2018-03-18T14:18:21.214Z,87.07
2018-03-18T14:20:50.414Z,91.03
2018-03-18T14:23:19.617Z,88.63
2018-03-18T14:25:48.749Z,95.40
2018-03-18T14:28:17.929Z,94.53
2018-03-18T14:30:47.070Z,92.80
2018-03-18T14:33:16.291Z,93.30
2018-03-18T14:35:45.450Z,91.40
2018-03-18T14:38:14.590Z,92.10
2018-03-18T14:40:43.738Z,98.23
2018-03-18T14:43:12.898Z,98.03
2018-03-18T14:45:42.047Z,95.60
2018-03-18T14:48:11.182Z,96.20
2018-03-18T14:50:40.355Z,94.30
2018-03-18T14:53:09.539Z,93.53
2018-03-18T14:55:38.678Z,95.40
2018-03-18T14:58:07.831Z,88.33
2018-03-18T15:00:37.022Z,91.20
2018-03-18T15:03:06.171Z,93.97
2018-03-18T15:05:35.326Z,92.27
2018-03-18T15:08:04.618Z,93.90
2018-03-18T15:10:33.761Z,87.60
2018-03-18T15:13:02.933Z,87.83
2018-03-18T15:15:32.108Z,90.93
2018-03-18T15:18:01.246Z,91.77
2018-03-18T15:20:30.414Z,106.10
2018-03-18T15:22:59.568Z,93.40
2018-03-18T15:25:28.762Z,96.93
2018-03-18T15:27:57.933Z,93.83
2018-03-18T15:30:27.076Z,87.00
2018-03-18T15:32:56.257Z,95.03
2018-03-18T15:35:25.407Z,97.23
2018-03-18T15:37:55.438Z,96.83
2018-03-18T15:40:24.585Z,93.70
2018-03-18T15:42:53.719Z,95.03
2018-03-18T15:45:22.859Z,100.93
2018-03-18T15:47:52.076Z,89.77
2018-03-18T15:50:21.226Z,90.73
2018-03-18T15:52:50.394Z,91.97
2018-03-18T15:55:19.538Z,96.93
2018-03-18T15:57:48.698Z,97.83
2018-03-18T16:00:17.886Z,95.90
2018-03-18T16:02:47.039Z,90.97
2018-03-18T16:05:16.624Z,100.10
2018-03-18T16:07:45.782Z,96.33
2018-03-18T16:10:14.942Z,89.13
2018-03-18T16:12:44.103Z,96.60
2018-03-18T16:15:13.241Z,97.03
2018-03-18T16:17:42.394Z,94.90
2018-03-18T16:20:11.562Z,90.93
2018-03-18T16:22:40.717Z,87.83
2018-03-18T16:25:09.850Z,94.90
2018-03-18T16:27:39.077Z,101.73
2018-03-18T16:30:14.068Z,99.87
2018-03-18T16:32:43.239Z,99.20
2018-03-18T16:35:12.389Z,94.97
2018-03-18T16:37:41.542Z,93.40
2018-03-18T16:40:10.706Z,98.67
2018-03-18T16:42:39.846Z,93.57
2018-03-18T16:45:09.028Z,98.23
2018-03-18T16:47:38.217Z,101.07
2018-03-18T16:50:07.362Z,91.60
2018-03-18T16:52:36.494Z,96.37
2018-03-18T16:55:05.673Z,95.90
2018-03-18T16:57:34.853Z,97.00
2018-03-18T17:00:03.997Z,95.40
2018-03-18T17:02:33.167Z,117.47
2018-03-18T17:05:02.318Z,134.17
2018-03-18T17:07:31.473Z,97.63
2018-03-18T17:10:00.725Z,100.23
2018-03-18T17:12:29.860Z,99.57
2018-03-18T17:14:59.020Z,101.10
2018-03-18T17:17:28.214Z,106.40
2018-03-18T17:19:57.730Z,89.70
2018-03-18T17:22:26.897Z,116.43
2018-03-18T17:24:56.041Z,102.57
2018-03-18T17:27:25.221Z,106.07
2018-03-18T17:29:54.390Z,129.77
2018-03-18T17:32:23.564Z,101.07
2018-03-18T17:34:52.744Z,92.40
2018-03-18T17:37:21.921Z,103.47
2018-03-18T17:39:51.078Z,101.67
2018-03-18T17:42:20.292Z,97.97
2018-03-18T17:47:54.736Z,94.30
2018-03-18T17:50:29.638Z,94.00
2018-03-18T17:53:04.727Z,97.90
2018-03-18T17:55:33.907Z,93.87
2018-03-18T17:58:03.054Z,91.87
2018-03-18T18:00:32.253Z,93.60
2018-03-18T18:03:01.398Z,96.10
2018-03-18T18:05:30.558Z,88.70
2018-03-18T18:07:59.724Z,94.33
2018-03-18T18:10:28.877Z,95.93
2018-03-18T18:12:58.049Z,94.97
2018-03-18T18:15:27.190Z,97.83
2018-03-18T18:17:56.323Z,92.23
2018-03-18T18:20:25.935Z,96.97
2018-03-18T18:22:55.079Z,94.23
2018-03-18T18:25:24.214Z,95.30
2018-03-18T18:27:53.382Z,100.83
2018-03-18T18:30:22.520Z,89.30
2018-03-18T18:32:51.696Z,101.13
2018-03-18T18:35:20.878Z,92.50
2018-03-18T18:37:50.057Z,95.40
2018-03-18T18:40:19.239Z,99.70
2018-03-18T18:42:48.466Z,98.87
2018-03-18T18:45:17.600Z,99.70
2018-03-18T18:47:46.786Z,101.60
2018-03-18T18:50:15.935Z,102.23
2018-03-18T18:52:45.114Z,95.43
2018-03-18T18:55:14.252Z,93.10
2018-03-18T18:57:43.433Z,96.43
2018-03-18T19:00:12.581Z,101.80
2018-03-18T19:02:41.729Z,103.93
2018-03-18T19:05:10.902Z,105.03
2018-03-18T19:07:40.046Z,96.33
2018-03-18T19:10:09.183Z,92.47
2018-03-18T19:12:38.381Z,96.07
2018-03-18T19:15:07.575Z,92.47
2018-03-18T19:17:36.724Z,95.90
2018-03-18T19:20:05.993Z,96.00
2018-03-18T19:22:35.443Z,98.77
2018-03-18T19:25:04.604Z,95.27
2018-03-18T19:27:33.798Z,93.90
2018-03-18T19:30:02.944Z,92.97
2018-03-18T19:32:32.096Z,96.63
2018-03-18T19:35:01.270Z,97.67
2018-03-18T19:37:30.408Z,99.60
2018-03-18T19:39:59.569Z,93.53
2018-03-18T19:42:28.734Z,103.20
2018-03-18T19:44:57.877Z,100.80
2018-03-18T19:47:27.039Z,103.20
2018-03-18T19:49:56.224Z,97.57
2018-03-18T19:52:25.387Z,101.60
2018-03-18T19:54:54.554Z,91.07
2018-03-18T19:57:23.755Z,95.80
2018-03-18T19:59:53.308Z,95.67
2018-03-18T20:02:22.466Z,95.57
2018-03-18T20:04:51.604Z,97.63
2018-03-18T20:07:20.773Z,95.50
2018-03-18T20:09:49.932Z,100.40
2018-03-18T20:12:19.102Z,99.73
2018-03-18T20:14:48.258Z,98.80
2018-03-18T20:17:17.403Z,101.90
2018-03-18T20:19:46.557Z,97.83
2018-03-18T20:22:15.737Z,97.47
2018-03-18T20:24:44.894Z,97.10
2018-03-18T20:27:14.043Z,100.00
2018-03-18T20:29:43.184Z,96.87
2018-03-18T20:32:12.366Z,103.67
2018-03-18T20:34:41.518Z,108.43
2018-03-18T20:37:10.665Z,102.50
2018-03-18T20:39:39.806Z,100.40
2018-03-18T20:42:08.990Z,99.03
2018-03-18T20:44:38.139Z,98.70
2018-03-18T20:47:07.284Z,102.57
2018-03-18T20:49:36.493Z,101.20
2018-03-18T20:52:05.654Z,101.57
2018-03-18T20:54:34.802Z,100.20
2018-03-18T20:57:03.982Z,95.00
2018-03-18T20:59:33.151Z,97.30
2018-03-18T21:02:02.294Z,97.30
2018-03-18T21:04:31.467Z,94.87
2018-03-18T21:07:00.605Z,98.80
2018-03-18T21:09:29.759Z,100.00
2018-03-18T21:11:58.933Z,100.40
2018-03-18T21:14:28.094Z,99.20
2018-03-18T21:16:57.246Z,101.63
2018-03-18T21:19:26.426Z,102.63
2018-03-18T21:21:55.573Z,105.80
2018-03-18T21:24:24.720Z,99.97
2018-03-18T21:26:53.911Z,98.80
2018-03-18T21:29:23.050Z,99.70
2018-03-18T21:31:52.646Z,94.53
2018-03-18T21:34:21.794Z,97.97
2018-03-18T21:36:50.948Z,100.20
2018-03-18T21:39:20.173Z,97.07
2018-03-18T21:41:49.315Z,90.50
2018-03-18T21:44:18.454Z,97.80
2018-03-18T21:46:47.641Z,100.63
2018-03-18T21:49:16.824Z,96.83
2018-03-18T21:51:45.987Z,105.73
2018-03-18T21:54:15.129Z,101.67
2018-03-18T21:56:44.261Z,102.17
2018-03-18T21:59:13.439Z,97.10
2018-03-18T22:01:42.578Z,97.47
2018-03-18T22:04:11.732Z,97.23
2018-03-18T22:06:40.898Z,99.10
2018-03-18T22:09:10.037Z,107.67
2018-03-18T22:14:27.191Z,96.77
2018-03-18T22:16:56.341Z,97.77
2018-03-18T22:19:25.491Z,98.20
2018-03-18T22:21:54.676Z,95.23
2018-03-18T22:24:23.866Z,102.57
2018-03-18T22:26:53.077Z,103.33
2018-03-18T22:29:22.813Z,103.70
2018-03-18T22:31:51.953Z,105.27
2018-03-18T22:34:21.092Z,98.47
2018-03-18T22:36:50.277Z,95.07
2018-03-18T22:39:19.406Z,100.70
2018-03-18T22:41:48.562Z,98.80
2018-03-18T22:44:17.762Z,101.23
2018-03-18T22:46:46.882Z,100.70
2018-03-18T22:49:16.018Z,98.67
2018-03-18T22:51:45.166Z,106.70
2018-03-18T22:54:14.331Z,107.73
2018-03-18T22:56:43.470Z,102.70
2018-03-18T22:59:12.630Z,106.47
2018-03-18T23:01:41.817Z,103.00
2018-03-18T23:04:11.018Z,105.67
2018-03-18T23:06:40.279Z,100.47
2018-03-18T23:09:09.450Z,103.67
2018-03-18T23:11:38.623Z,98.80
2018-03-18T23:14:07.785Z,96.97
2018-03-18T23:16:36.932Z,100.10
2018-03-18T23:19:06.154Z,99.63
2018-03-18T23:21:35.298Z,104.07
2018-03-18T23:24:04.434Z,107.80
2018-03-18T23:26:33.612Z,102.77
2018-03-18T23:29:02.753Z,104.00
2018-03-18T23:31:31.933Z,99.77
2018-03-18T23:34:01.111Z,100.80
2018-03-18T23:36:30.253Z,105.17
2018-03-18T23:38:59.399Z,102.43
2018-03-18T23:41:28.583Z,106.20
2018-03-18T23:43:57.785Z,103.57
2018-03-18T23:46:26.987Z,108.40
2018-03-18T23:48:56.172Z,102.93
2018-03-18T23:51:25.336Z,105.80
2018-03-18T23:53:54.528Z,105.37
2018-03-18T23:56:23.671Z,103.40
2018-03-18T23:58:52.837Z,103.30
